Winslow Lindbergh Regional Airport
KINW : now visible

Airfield :











YOU CAN JOIN US ON...

 
LOGIN :

Register | Disclaimer

   EN    FR    IT 

 









Legend :    VFR   Marginal VFR   IFR   Intensive IFR   Very Intensive IFR
Visi :
Ceiling :
>= 8 km
>= 3000ft
5 to 8 km
1000 to 3000 ft
1500m to 5 km
500 to 1000 ft
800 to 1500m
200 to 500 ft
< 800m
< 200 ft
Symbols :   Thunderstorms  Fog  Heavy snow  Heavy precipitations  Wind > 20 kt






- Airport Elevation : 4941 ft


KINW - Winslow Lindbergh Regional

CURRENT METAR :
  • 280456Z AUTO 22009KT 10SM CLR 21/M07 A3013 RMK AO2 SLP133 T02061072 $

EXPIRED METARs :
  • 280356Z AUTO 22010KT 10SM CLR 22/M07 A3012 RMK AO2 SLP131 T02171072 $
  • 280256Z AUTO 24008KT 10SM CLR 24/M08 A3010 RMK AO2 SLP128 T02391083 53011 $
  • 280156Z AUTO 23014KT 10SM CLR 28/M08 A3009 RMK AO2 SLP122 T02781083 $
  • 280056Z AUTO 26013G21KT 10SM CLR 30/M08 A3007 RMK AO2 SLP120 T03001078 $

TAF KINW
Valid from the 28 at 00:00 until the 29 at 00:00 UTC


272320Z 2800/2824 24011G19KT P6SM FEW250
FM280300 23008KT P6SM SKC
FM280600 VRB05KT P6SM SKC
FM282000 23010G16KT P6SM SKC
KZAB FIR / North America



MET'MAP, your aeronautical weather chart ! - Copyright ORBIFLY December 2007 - Disclaimer

ORBIFLY MET'MAP TEAM :

Programming & Development : Alexandra Zaïnal
Original concept : Baudouin d'Aumeries
Technical & hardware support : Manuel Goepfert
Assistance : Marc-Olivier Méhu




SOURCES & CREDITS :

   NOAA       Earth
Advisory